createdAt,value
2019-01-30T00:00:40.092Z,4.10
2019-01-30T00:03:19.935Z,4.13
2019-01-30T00:06:08.080Z,4.13
2019-01-30T00:08:48.390Z,4.53
2019-01-30T00:11:34.638Z,3.40
2019-01-30T00:14:14.112Z,3.45
2019-01-30T00:17:00.303Z,4.27
2019-01-30T00:19:40.422Z,3.58
2019-01-30T00:22:26.623Z,4.50
2019-01-30T00:24:53.263Z,4.20
2019-01-30T00:27:39.528Z,4.40
2019-01-30T00:30:25.830Z,4.67
2019-01-30T00:33:05.821Z,3.90
2019-01-30T00:35:32.323Z,4.20
2019-01-30T00:38:18.674Z,4.30
2019-01-30T00:40:58.634Z,4.87
2019-01-30T00:43:25.175Z,4.27
2019-01-30T00:46:11.457Z,4.80
2019-01-30T00:48:50.990Z,4.37
2019-01-30T00:51:37.248Z,5.37
2019-01-30T00:54:17.278Z,4.97
2019-01-30T00:57:03.596Z,4.63
2019-01-30T00:59:43.391Z,4.87
2019-01-30T01:02:29.735Z,5.17
2019-01-30T01:04:56.162Z,4.90
2019-01-30T01:07:35.548Z,5.40
2019-01-30T01:10:21.905Z,4.63
2019-01-30T01:13:02.077Z,5.77
2019-01-30T01:15:28.701Z,4.47
2019-01-30T01:18:14.924Z,4.53
2019-01-30T01:20:55.412Z,5.07
2019-01-30T01:23:41.667Z,4.57
2019-01-30T01:26:08.170Z,4.07
2019-01-30T01:28:54.551Z,5.23
2019-01-30T01:31:40.830Z,4.83
2019-01-30T01:34:27.114Z,5.63
2019-01-30T01:37:07.497Z,4.47
2019-01-30T01:39:53.753Z,4.10
2019-01-30T01:42:33.982Z,4.33
2019-01-30T01:45:21.218Z,5.13
2019-01-30T01:47:47.713Z,4.47
2019-01-30T01:50:33.954Z,3.67
2019-01-30T01:53:13.554Z,4.50
2019-01-30T01:55:40.203Z,4.40
2019-01-30T01:58:26.358Z,4.67
2019-01-30T02:01:05.751Z,5.80
2019-01-30T02:03:52.010Z,4.10
2019-01-30T02:06:18.518Z,4.20
2019-01-30T02:08:45.022Z,4.07
2019-01-30T02:11:31.399Z,4.57
2019-01-30T02:14:11.383Z,4.37
2019-01-30T02:16:37.876Z,4.30
2019-01-30T02:19:04.469Z,3.83
2019-01-30T02:21:50.699Z,4.30
2019-01-30T02:24:17.190Z,4.40
2019-01-30T02:26:43.682Z,5.80
2019-01-30T02:29:29.944Z,5.72
2019-01-30T02:31:56.440Z,4.67
2019-01-30T02:34:42.802Z,3.83
2019-01-30T02:37:29.036Z,3.93
2019-01-30T02:40:13.334Z,4.20
2019-01-30T02:42:59.480Z,4.50
2019-01-30T02:45:39.512Z,4.28
2019-01-30T02:48:06.133Z,4.08
2019-01-30T02:50:52.450Z,4.90
2019-01-30T02:53:32.628Z,5.00
2019-01-30T02:56:18.863Z,4.97
2019-01-30T02:58:58.962Z,4.50
2019-01-30T03:02:05.075Z,3.63
2019-01-30T03:04:45.186Z,3.77
2019-01-30T03:07:25.377Z,3.73
2019-01-30T03:10:12.915Z,3.72
2019-01-30T03:16:09.123Z,4.67
2019-01-30T03:18:55.292Z,4.37
2019-01-30T03:21:21.785Z,4.05
2019-01-30T03:23:48.081Z,3.83
2019-01-30T03:26:34.754Z,3.77
2019-01-30T03:32:36.478Z,3.97
2019-01-30T03:35:16.388Z,4.17
2019-01-30T03:38:03.177Z,3.73
2019-01-30T03:40:43.369Z,3.83
2019-01-30T03:43:29.705Z,4.40
2019-01-30T03:46:09.612Z,4.03
2019-01-30T03:48:55.853Z,4.25
2019-01-30T03:51:36.031Z,4.87
2019-01-30T03:54:22.426Z,4.27
2019-01-30T03:56:49.010Z,4.20
2019-01-30T03:59:35.394Z,3.95
2019-01-30T04:02:15.638Z,4.27
2019-01-30T04:05:02.114Z,4.07
2019-01-30T04:07:41.564Z,3.90
2019-01-30T04:10:28.046Z,4.17
2019-01-30T04:12:54.667Z,4.07
2019-01-30T04:15:41.106Z,3.40
2019-01-30T04:18:27.473Z,3.90
2019-01-30T04:21:07.976Z,3.62
2019-01-30T04:23:54.334Z,3.50
2019-01-30T04:26:34.296Z,3.77
2019-01-30T04:29:20.552Z,3.47
2019-01-30T04:32:00.436Z,3.42
2019-01-30T04:34:46.739Z,4.65
2019-01-30T04:37:13.388Z,3.27
2019-01-30T04:39:59.779Z,3.33
2019-01-30T04:42:26.388Z,3.27
2019-01-30T04:45:13.914Z,3.70
2019-01-30T04:47:54.208Z,3.70
2019-01-30T04:50:40.596Z,4.22
2019-01-30T04:53:20.417Z,4.55
2019-01-30T04:55:46.894Z,3.72
2019-01-30T04:58:13.487Z,3.70
2019-01-30T05:00:59.738Z,3.55
2019-01-30T05:03:26.279Z,3.00
2019-01-30T05:06:12.533Z,3.33
2019-01-30T05:08:55.890Z,4.03
2019-01-30T05:11:40.542Z,3.65
2019-01-30T05:14:07.295Z,3.97
2019-01-30T05:16:53.663Z,3.37
2019-01-30T05:19:33.779Z,3.92
2019-01-30T05:22:20.039Z,4.00
2019-01-30T05:24:46.585Z,3.53
2019-01-30T05:27:32.895Z,4.10
2019-01-30T05:30:17.441Z,3.40
2019-01-30T05:33:03.671Z,3.90
2019-01-30T05:35:30.181Z,3.80
2019-01-30T05:38:16.577Z,4.03
2019-01-30T05:41:02.891Z,4.33
2019-01-30T05:43:43.235Z,4.47
2019-01-30T05:46:29.570Z,4.67
2019-01-30T05:49:09.002Z,3.83
2019-01-30T05:51:55.303Z,3.63
2019-01-30T05:54:21.867Z,3.87
2019-01-30T05:57:08.238Z,5.07
2019-01-30T05:59:34.760Z,4.00
2019-01-30T06:02:22.004Z,3.83
2019-01-30T06:05:08.405Z,3.63
2019-01-30T06:07:48.840Z,3.87
2019-01-30T06:10:15.438Z,3.90
2019-01-30T06:13:01.728Z,5.70
2019-01-30T06:15:47.973Z,4.83
2019-01-30T06:18:27.996Z,3.95
2019-01-30T06:21:06.682Z,4.15
2019-01-30T06:23:33.204Z,3.83
2019-01-30T06:25:59.602Z,4.10
2019-01-30T06:28:45.843Z,4.33
2019-01-30T06:31:12.430Z,4.07
2019-01-30T06:33:38.912Z,4.00
2019-01-30T06:36:05.437Z,4.45
2019-01-30T06:38:51.697Z,4.60
2019-01-30T06:41:38.059Z,4.28
2019-01-30T06:44:04.582Z,4.17
2019-01-30T06:46:50.837Z,4.83
2019-01-30T06:49:30.807Z,4.20
2019-01-30T06:52:17.122Z,4.50
2019-01-30T06:54:57.170Z,4.63
2019-01-30T06:57:43.295Z,5.53
2019-01-30T07:00:29.545Z,4.08
2019-01-30T07:02:56.233Z,3.90
2019-01-30T07:06:04.139Z,3.70
2019-01-30T07:08:46.547Z,3.52
2019-01-30T07:11:32.903Z,3.30
2019-01-30T07:14:12.687Z,3.75
2019-01-30T07:16:39.198Z,4.00
2019-01-30T07:19:25.531Z,4.15
2019-01-30T07:21:52.184Z,4.40
2019-01-30T07:24:38.438Z,3.85
2019-01-30T07:27:04.938Z,4.47
2019-01-30T07:29:51.348Z,5.28
2019-01-30T07:32:42.226Z,4.83
2019-01-30T07:35:19.262Z,3.55
2019-01-30T07:37:45.746Z,3.27
2019-01-30T07:40:33.942Z,4.05
2019-01-30T07:43:22.710Z,3.58
2019-01-30T07:46:02.026Z,4.08
2019-01-30T07:48:29.077Z,4.50
2019-01-30T07:53:35.185Z,4.25
2019-01-30T07:56:21.539Z,5.15
2019-01-30T07:59:07.794Z,4.83
2019-01-30T08:01:34.179Z,4.15
2019-01-30T08:04:33.101Z,3.55
2019-01-30T08:07:03.160Z,4.25
2019-01-30T08:09:42.814Z,4.58
2019-01-30T08:12:29.172Z,4.80
2019-01-30T08:15:11.280Z,4.58
2019-01-30T08:17:57.534Z,4.22
2019-01-30T08:20:37.431Z,4.28
2019-01-30T08:23:23.852Z,4.87
2019-01-30T08:26:10.397Z,4.15
2019-01-30T08:28:56.720Z,4.00
2019-01-30T08:31:36.821Z,4.28
2019-01-30T08:34:23.173Z,4.15
2019-01-30T08:37:02.682Z,3.72
2019-01-30T08:39:48.948Z,3.72
2019-01-30T08:42:28.679Z,5.08
2019-01-30T08:44:55.172Z,3.65
2019-01-30T08:47:41.556Z,4.03
2019-01-30T08:53:42.145Z,4.20
2019-01-30T08:56:22.007Z,5.08
2019-01-30T08:59:08.382Z,4.03
2019-01-30T09:01:48.121Z,4.72
2019-01-30T09:04:34.381Z,5.28
2019-01-30T09:07:14.255Z,4.17
2019-01-30T09:09:54.233Z,4.78
2019-01-30T09:12:40.598Z,4.33
2019-01-30T09:15:28.797Z,5.17
2019-01-30T09:18:08.852Z,4.90
2019-01-30T09:20:55.243Z,5.22
2019-01-30T09:23:34.856Z,4.70
2019-01-30T09:26:21.277Z,4.83
2019-01-30T09:29:01.081Z,5.33
2019-01-30T09:31:47.354Z,4.80
2019-01-30T09:34:13.904Z,5.47
2019-01-30T09:36:40.378Z,5.50
2019-01-30T09:39:26.772Z,6.05
2019-01-30T09:42:13.113Z,6.10
2019-01-30T09:44:53.654Z,6.00
2019-01-30T09:47:39.878Z,6.17
2019-01-30T09:53:26.749Z,5.67
2019-01-30T09:55:53.382Z,5.62
2019-01-30T09:58:39.519Z,6.97
2019-01-30T10:01:25.833Z,6.30
2019-01-30T10:03:52.449Z,6.40
2019-01-30T10:06:38.702Z,5.90
2019-01-30T10:09:26.799Z,5.42
2019-01-30T10:12:13.052Z,5.50
2019-01-30T10:14:39.460Z,7.03
2019-01-30T10:17:06.044Z,6.75
2019-01-30T10:19:32.558Z,7.28
2019-01-30T10:22:18.901Z,6.62
2019-01-30T10:24:45.578Z,6.58
2019-01-30T10:27:31.870Z,7.12
2019-01-30T10:30:19.222Z,7.30
2019-01-30T10:33:05.475Z,6.70
2019-01-30T10:35:32.204Z,6.65
2019-01-30T10:38:18.620Z,8.65
2019-01-30T10:40:58.550Z,8.05
2019-01-30T10:43:25.165Z,8.55
2019-01-30T10:45:51.660Z,8.33
2019-01-30T10:48:37.932Z,8.50
2019-01-30T10:51:24.197Z,7.72
2019-01-30T10:54:04.021Z,7.45
2019-01-30T10:56:50.275Z,7.35
2019-01-30T10:59:36.557Z,6.42
2019-01-30T11:02:22.757Z,6.65
2019-01-30T11:05:03.897Z,7.45
2019-01-30T11:07:30.354Z,6.97
2019-01-30T11:10:11.783Z,6.80
2019-01-30T11:12:58.179Z,7.00
2019-01-30T11:15:37.927Z,7.10
2019-01-30T11:18:24.282Z,6.72
2019-01-30T11:20:50.799Z,7.45
2019-01-30T11:23:37.095Z,6.78
2019-01-30T11:26:18.476Z,6.95
2019-01-30T11:28:44.831Z,8.20
2019-01-30T11:34:07.442Z,7.45
2019-01-30T11:36:51.055Z,6.80
2019-01-30T11:39:17.587Z,7.90
2019-01-30T11:42:03.806Z,6.90
2019-01-30T11:44:50.096Z,6.40
2019-01-30T11:47:31.220Z,7.95
2019-01-30T11:50:17.469Z,7.67
2019-01-30T11:52:57.723Z,7.17
2019-01-30T11:55:43.995Z,8.60
2019-01-30T11:58:23.933Z,8.13
2019-01-30T12:01:11.070Z,6.72
2019-01-30T12:03:50.769Z,7.08
2019-01-30T12:06:37.039Z,6.45
2019-01-30T12:09:17.413Z,6.60
2019-01-30T12:12:03.692Z,7.53
2019-01-30T12:14:30.299Z,9.00
2019-01-30T12:17:17.154Z,7.40
2019-01-30T12:20:23.155Z,7.15
2019-01-30T12:23:03.168Z,7.83
2019-01-30T12:25:49.733Z,7.40
2019-01-30T12:28:35.996Z,7.42
2019-01-30T12:31:22.374Z,7.97
2019-01-30T12:34:02.827Z,8.18
2019-01-30T12:36:49.074Z,6.95
2019-01-30T12:39:29.218Z,7.70
2019-01-30T12:42:15.542Z,7.17
2019-01-30T12:44:55.568Z,7.95
2019-01-30T12:47:41.798Z,8.10
2019-01-30T12:50:08.610Z,7.90
2019-01-30T12:52:55.292Z,6.87
2019-01-30T12:55:41.541Z,9.10
2019-01-30T12:58:22.834Z,6.50
2019-01-30T13:00:49.583Z,6.87
2019-01-30T13:03:16.444Z,7.03
2019-01-30T13:06:03.300Z,7.62
2019-01-30T13:08:43.513Z,7.80
2019-01-30T13:11:29.905Z,7.03
2019-01-30T13:13:56.340Z,7.03
2019-01-30T13:16:42.683Z,7.40
2019-01-30T13:19:29.052Z,6.87
2019-01-30T13:22:09.328Z,6.70
2019-01-30T13:24:55.925Z,6.60
2019-01-30T13:27:35.674Z,7.37
2019-01-30T13:30:43.922Z,6.80
2019-01-30T13:33:25.839Z,7.33
2019-01-30T13:36:12.292Z,7.67
2019-01-30T13:38:52.191Z,7.42
2019-01-30T13:41:38.710Z,7.53
2019-01-30T13:44:25.016Z,7.30
2019-01-30T13:47:11.369Z,8.17
2019-01-30T13:49:51.696Z,6.93
2019-01-30T13:52:37.911Z,9.97
2019-01-30T13:55:17.708Z,7.70
2019-01-30T13:57:44.331Z,8.53
2019-01-30T14:00:31.522Z,7.65
2019-01-30T14:02:58.108Z,9.13
2019-01-30T14:05:44.333Z,8.50
2019-01-30T14:08:25.046Z,6.83
2019-01-30T14:11:11.319Z,6.70
2019-01-30T14:13:54.831Z,7.28
2019-01-30T14:16:21.366Z,6.87
2019-01-30T14:19:08.075Z,8.03
2019-01-30T14:21:50.613Z,6.15
2019-01-30T14:24:37.042Z,7.15
2019-01-30T14:27:04.118Z,7.12
2019-01-30T14:29:58.172Z,7.70
2019-01-30T14:32:31.841Z,6.87
2019-01-30T14:35:18.275Z,7.33
2019-01-30T14:37:58.827Z,6.30
2019-01-30T14:40:45.147Z,7.15
2019-01-30T14:43:25.567Z,6.37
2019-01-30T14:46:11.824Z,6.73
2019-01-30T14:48:51.446Z,7.17
2019-01-30T14:51:37.691Z,6.15
2019-01-30T14:54:04.227Z,7.15
2019-01-30T14:56:50.464Z,7.77
2019-01-30T14:59:36.854Z,7.80
2019-01-30T15:02:14.616Z,6.60
2019-01-30T15:05:00.826Z,6.65
2019-01-30T15:07:40.794Z,6.75
2019-01-30T15:10:42.710Z,6.85
2019-01-30T15:13:28.954Z,6.13
2019-01-30T15:16:09.248Z,6.42
2019-01-30T15:19:11.117Z,6.50
2019-01-30T15:21:50.688Z,6.42
2019-01-30T15:24:37.097Z,5.92
2019-01-30T15:27:23.384Z,6.10
2019-01-30T15:30:04.704Z,8.57
2019-01-30T15:32:31.800Z,6.50
2019-01-30T15:35:12.907Z,6.77
2019-01-30T15:37:59.552Z,7.67
2019-01-30T15:40:47.753Z,6.53
2019-01-30T15:43:14.347Z,7.05
2019-01-30T15:46:00.763Z,6.53
2019-01-30T15:48:40.505Z,6.90
2019-01-30T15:51:07.087Z,7.23
2019-01-30T15:53:53.214Z,6.43
2019-01-30T15:56:33.380Z,8.13
2019-01-30T15:59:19.625Z,7.10
2019-01-30T16:01:59.267Z,6.20
2019-01-30T16:04:45.502Z,6.97
2019-01-30T16:07:12.013Z,7.27
2019-01-30T16:09:38.678Z,6.93
2019-01-30T16:12:25.068Z,6.50
2019-01-30T16:15:09.917Z,7.10
2019-01-30T16:17:36.424Z,6.77
2019-01-30T16:20:22.666Z,7.33
2019-01-30T16:23:08.933Z,9.17
2019-01-30T16:25:49.256Z,6.63
2019-01-30T16:28:35.493Z,8.67
2019-01-30T16:31:15.393Z,7.77
2019-01-30T16:33:41.880Z,7.67
2019-01-30T16:36:08.398Z,7.70
2019-01-30T16:38:35.000Z,7.23
2019-01-30T16:41:21.245Z,6.97
2019-01-30T16:44:07.607Z,7.37
2019-01-30T16:46:47.309Z,7.63
2019-01-30T16:49:33.627Z,8.10
2019-01-30T16:52:13.453Z,6.93
2019-01-30T16:54:40.075Z,7.50
2019-01-30T16:57:06.739Z,6.47
2019-01-30T16:59:33.359Z,7.77
2019-01-30T17:01:59.905Z,9.27
2019-01-30T17:04:46.286Z,9.47
2019-01-30T17:07:25.994Z,8.27
2019-01-30T17:09:52.516Z,8.30
2019-01-30T17:12:18.996Z,8.47
2019-01-30T17:15:26.928Z,8.67
2019-01-30T17:18:13.178Z,8.20
2019-01-30T17:20:52.931Z,9.00
2019-01-30T17:23:39.194Z,9.43
2019-01-30T17:26:18.788Z,9.13
2019-01-30T17:29:05.207Z,7.70
2019-01-30T17:31:45.204Z,9.23
2019-01-30T17:34:31.452Z,9.03
2019-01-30T17:37:11.616Z,7.83
2019-01-30T17:39:57.846Z,8.50
2019-01-30T17:42:24.514Z,7.83
2019-01-30T17:45:10.771Z,7.93
2019-01-30T17:48:16.788Z,8.03
2019-01-30T17:50:57.043Z,8.50
2019-01-30T17:53:43.375Z,8.53
2019-01-30T17:56:23.216Z,8.87
2019-01-30T17:59:09.594Z,8.83
2019-01-30T18:01:49.651Z,7.93
2019-01-30T18:04:16.139Z,8.20
2019-01-30T18:07:02.638Z,8.97
2019-01-30T18:09:42.883Z,7.93
2019-01-30T18:12:29.222Z,9.50
2019-01-30T18:15:10.248Z,9.97
2019-01-30T18:17:56.549Z,7.77
2019-01-30T18:20:36.827Z,8.70
2019-01-30T18:23:23.040Z,8.77
2019-01-30T18:26:03.091Z,9.23
2019-01-30T18:28:29.586Z,7.97
2019-01-30T18:31:15.883Z,7.13
2019-01-30T18:33:55.985Z,9.00
2019-01-30T18:36:42.357Z,8.63
2019-01-30T18:39:22.240Z,8.97
2019-01-30T18:42:08.572Z,7.57
2019-01-30T18:44:54.958Z,8.03
2019-01-30T18:47:41.294Z,7.67
2019-01-30T18:50:22.545Z,7.33
2019-01-30T18:53:08.796Z,8.20
2019-01-30T18:55:35.268Z,8.07
2019-01-30T18:58:01.767Z,9.33
2019-01-30T19:00:48.025Z,9.27
2019-01-30T19:03:27.464Z,8.43
2019-01-30T19:06:13.837Z,9.07
2019-01-30T19:08:53.675Z,8.40
2019-01-30T19:11:39.920Z,9.20
2019-01-30T19:14:19.722Z,9.53
2019-01-30T19:16:46.271Z,9.93
2019-01-30T19:19:32.525Z,11.25
2019-01-30T19:22:12.584Z,9.70
2019-01-30T19:24:58.843Z,10.27
2019-01-30T19:27:45.111Z,9.17
2019-01-30T19:30:26.590Z,8.87
2019-01-30T19:33:12.843Z,9.70
2019-01-30T19:35:52.723Z,9.47
2019-01-30T19:38:38.973Z,10.17
2019-01-30T19:41:19.452Z,9.60
2019-01-30T19:44:05.783Z,9.60
2019-01-30T19:46:50.216Z,9.87
2019-01-30T19:49:29.972Z,10.23
2019-01-30T19:52:16.299Z,9.23
2019-01-30T19:54:55.850Z,10.93
2019-01-30T19:57:42.254Z,11.03
2019-01-30T20:00:48.255Z,12.33
2019-01-30T20:03:56.264Z,9.50
2019-01-30T20:06:42.531Z,9.83
2019-01-30T20:09:23.142Z,10.97
2019-01-30T20:11:49.797Z,9.03
2019-01-30T20:14:16.346Z,10.23
2019-01-30T20:17:02.759Z,10.00
2019-01-30T20:19:49.019Z,8.60
2019-01-30T20:22:28.367Z,10.43
2019-01-30T20:25:34.459Z,10.30
2019-01-30T20:28:14.805Z,9.97
2019-01-30T20:31:01.425Z,9.63
2019-01-30T20:33:40.812Z,9.87
2019-01-30T20:36:07.316Z,10.87
2019-01-30T20:38:53.637Z,10.37
2019-01-30T20:41:40.044Z,11.10
2019-01-30T20:44:26.266Z,9.27
2019-01-30T20:46:52.761Z,9.83
2019-01-30T20:49:39.040Z,9.40
2019-01-30T20:52:05.635Z,9.50
2019-01-30T20:54:59.694Z,9.93
2019-01-30T20:57:33.227Z,9.63
2019-01-30T21:00:39.430Z,10.37
2019-01-30T21:03:19.685Z,9.37
2019-01-30T21:06:05.980Z,10.37
2019-01-30T21:08:32.486Z,9.60
2019-01-30T21:11:12.127Z,9.97
2019-01-30T21:13:52.451Z,12.90
2019-01-30T21:16:32.582Z,11.60
2019-01-30T21:19:19.166Z,9.30
2019-01-30T21:21:45.574Z,10.00
2019-01-30T21:24:31.853Z,10.60
2019-01-30T21:27:18.080Z,9.90
2019-01-30T21:33:12.082Z,11.50
2019-01-30T21:35:38.691Z,9.43
2019-01-30T21:38:24.930Z,8.73
2019-01-30T21:40:51.558Z,8.87
2019-01-30T21:43:17.933Z,8.73
2019-01-30T21:46:04.170Z,8.80
2019-01-30T21:48:30.557Z,10.00
2019-01-30T21:51:16.799Z,8.20
2019-01-30T21:53:56.353Z,8.23
2019-01-30T21:56:22.867Z,7.90
2019-01-30T21:59:09.138Z,8.67
2019-01-30T22:01:35.693Z,6.60
2019-01-30T22:04:21.990Z,7.70
2019-01-30T22:07:08.346Z,8.10
2019-01-30T22:09:47.983Z,7.57
2019-01-30T22:12:34.405Z,9.10
2019-01-30T22:15:14.693Z,7.77
2019-01-30T22:17:41.274Z,7.33
2019-01-30T22:20:27.548Z,7.73
2019-01-30T22:23:13.791Z,6.73
2019-01-30T22:25:54.229Z,7.67
2019-01-30T22:28:40.533Z,7.70
2019-01-30T22:31:07.041Z,8.57
2019-01-30T22:33:33.433Z,7.50
2019-01-30T22:36:19.792Z,8.23
2019-01-30T22:38:59.997Z,8.23
2019-01-30T22:41:46.232Z,7.93
2019-01-30T22:44:30.409Z,8.07
2019-01-30T22:46:56.885Z,7.37
2019-01-30T22:49:43.151Z,8.30
2019-01-30T22:52:23.470Z,6.03
2019-01-30T22:55:10.918Z,6.83
2019-01-30T23:01:12.629Z,6.40
2019-01-30T23:04:13.781Z,6.53
2019-01-30T23:07:19.883Z,6.30
2019-01-30T23:10:19.358Z,6.00
2019-01-30T23:13:21.387Z,6.63
2019-01-30T23:16:21.590Z,6.10
2019-01-30T23:19:09.754Z,6.70
2019-01-30T23:22:31.493Z,6.87
2019-01-30T23:25:37.645Z,5.93
2019-01-30T23:28:25.738Z,7.50
2019-01-30T23:31:32.985Z,7.00
2019-01-30T23:34:39.083Z,6.30
2019-01-30T23:37:20.906Z,6.37
2019-01-30T23:40:09.078Z,6.60
2019-01-30T23:43:15.089Z,6.27
2019-01-30T23:46:21.183Z,6.40
2019-01-30T23:49:23.208Z,6.63
2019-01-30T23:52:29.424Z,6.00
2019-01-30T23:55:16.677Z,6.83
2019-01-30T23:58:04.717Z,5.87
